KRND METAR and TAF | Updated Today

KRND METAR

Randolph Air Force Base

Observation time: 41 min. ago

KRND 292356Z AUTO 18004KT 10SM CLR 16/06 A3012 RMK AO2 SLP200 T01590058 10215 20147 55002

Need help? Read our tutorial on how to read METARs or read the parsed version below.

Randolph Air Force Base (KRND) METAR

  • Weather conditions on Mon, 29 Nov 2021 23:56:00 +0000 (41 min. ago):
  • Present conditions: Dry
  • Clouds: Clear skies
  • Visibility: 16093 meters
  • Wind: 180 degrees at 4 knots
  • Temperature: 16 celsius
  • Dew point: 6 celsius
  • Pressure: 30.12 inHg
  • Remarks: AO2 SLP200 T01590058 10215 20147 55002


Useful to know...

KRND TAF

Randolph Air Force Base

TAF KRND 291630Z 2917/3023 VRB06KT 9999 SKC QNH3010INS BECMG 3017/3018 18012KT 9999 FEW250 QNH3003INS TX22/2921Z TN08/3012Z LAST NO AMDS AFT 3001 NEXT 3011
Observation time: 8:07 hr. ago
Need help? Read our tutorial on how to read TAFs or read the parsed version below.

Parsed version of TAF for Randolph Air Force Base (KRND)

  • From 29 November at 17:00 UTC, to day 30 of the month at 23:00 UTC
  • Clouds: No significant changes expected
  • Visibility: Greater than 10 km
  • Wind: Variable at 6
  • Expected to arise soon, from 30 November at 17:00 UTC, to day 30 of the month at 18:00 UTC
  • Clouds: A few at 7620 meters
  • Visibility: Greater than 10 km
  • Wind: 180 degrees at 12